sensor_id;sensor_type;location;lat;lon;timestamp;pressure;altitude;pressure_sealevel;temperature;humidity
75039;BME280;63609;49.992;14.512;2023-03-16T00:00:53;98491.13;;;-1.56;60.73
75039;BME280;63609;49.992;14.512;2023-03-16T00:03:20;98496.56;;;-1.01;57.63
75039;BME280;63609;49.992;14.512;2023-03-16T00:05:51;98497.03;;;-0.92;56.64
75039;BME280;63609;49.992;14.512;2023-03-16T00:08:19;98496.44;;;-0.80;55.36
75039;BME280;63609;49.992;14.512;2023-03-16T00:10:47;98498.97;;;-0.97;54.65
75039;BME280;63609;49.992;14.512;2023-03-16T00:13:18;98501.19;;;-0.69;55.45
75039;BME280;63609;49.992;14.512;2023-03-16T00:16:02;98501.09;;;-1.05;55.50
75039;BME280;63609;49.992;14.512;2023-03-16T00:18:31;98504.97;;;-1.14;56.62
75039;BME280;63609;49.992;14.512;2023-03-16T00:21:04;98502.97;;;-0.88;55.14
75039;BME280;63609;49.992;14.512;2023-03-16T00:23:33;98500.53;;;-0.93;54.45
75039;BME280;63609;49.992;14.512;2023-03-16T00:26:04;98503.50;;;-1.00;54.77
75039;BME280;63609;49.992;14.512;2023-03-16T00:28:38;98495.13;;;-1.09;54.34
75039;BME280;63609;49.992;14.512;2023-03-16T00:31:10;98502.44;;;-0.96;54.81
75039;BME280;63609;49.992;14.512;2023-03-16T00:33:38;98500.94;;;-1.02;54.62
75039;BME280;63609;49.992;14.512;2023-03-16T00:36:06;98497.25;;;-1.17;55.10
75039;BME280;63609;49.992;14.512;2023-03-16T00:38:37;98498.13;;;-1.37;55.26
75039;BME280;63609;49.992;14.512;2023-03-16T00:41:06;98499.53;;;-1.29;54.80
75039;BME280;63609;49.992;14.512;2023-03-16T00:43:36;98502.44;;;-1.15;54.56
75039;BME280;63609;49.992;14.512;2023-03-16T00:46:15;98510.22;;;-1.14;54.88
75039;BME280;63609;49.992;14.512;2023-03-16T00:48:45;98503.19;;;-1.13;54.93
75039;BME280;63609;49.992;14.512;2023-03-16T00:51:15;98513.75;;;-1.15;55.24
75039;BME280;63609;49.992;14.512;2023-03-16T00:53:44;98507.38;;;-1.09;55.24
75039;BME280;63609;49.992;14.512;2023-03-16T00:56:12;98511.91;;;-1.13;55.63
75039;BME280;63609;49.992;14.512;2023-03-16T00:58:40;98511.63;;;-1.07;55.08
75039;BME280;63609;49.992;14.512;2023-03-16T01:01:17;98515.25;;;-1.09;54.16
75039;BME280;63609;49.992;14.512;2023-03-16T01:03:45;98516.78;;;-1.24;55.94
75039;BME280;63609;49.992;14.512;2023-03-16T01:06:16;98519.91;;;-1.36;56.13
75039;BME280;63609;49.992;14.512;2023-03-16T01:08:44;98521.47;;;-1.32;54.71
75039;BME280;63609;49.992;14.512;2023-03-16T01:11:18;98521.00;;;-1.82;57.55
75039;BME280;63609;49.992;14.512;2023-03-16T01:13:46;98514.06;;;-1.63;56.34
75039;BME280;63609;49.992;14.512;2023-03-16T01:16:14;98527.84;;;-1.38;56.29
75039;BME280;63609;49.992;14.512;2023-03-16T01:18:41;98533.22;;;-1.41;55.52
75039;BME280;63609;49.992;14.512;2023-03-16T01:21:09;98523.59;;;-1.40;54.32
75039;BME280;63609;49.992;14.512;2023-03-16T01:23:40;98524.19;;;-1.54;55.33
75039;BME280;63609;49.992;14.512;2023-03-16T01:26:11;98533.19;;;-1.61;56.84
75039;BME280;63609;49.992;14.512;2023-03-16T01:28:40;98541.34;;;-2.11;59.69
75039;BME280;63609;49.992;14.512;2023-03-16T01:31:12;98527.09;;;-2.04;59.70
75039;BME280;63609;49.992;14.512;2023-03-16T01:33:42;98529.72;;;-1.82;59.63
75039;BME280;63609;49.992;14.512;2023-03-16T01:36:16;98524.47;;;-1.61;58.65
75039;BME280;63609;49.992;14.512;2023-03-16T01:38:58;98543.41;;;-2.19;60.96
75039;BME280;63609;49.992;14.512;2023-03-16T01:41:31;98549.13;;;-2.09;60.37
75039;BME280;63609;49.992;14.512;2023-03-16T01:43:59;98546.88;;;-2.18;61.31
75039;BME280;63609;49.992;14.512;2023-03-16T01:46:30;98556.59;;;-2.00;60.24
75039;BME280;63609;49.992;14.512;2023-03-16T01:49:33;98552.84;;;-2.15;61.00
75039;BME280;63609;49.992;14.512;2023-03-16T01:52:06;98541.78;;;-1.57;57.19
75039;BME280;63609;49.992;14.512;2023-03-16T01:54:59;98550.09;;;-1.48;57.85
75039;BME280;63609;49.992;14.512;2023-03-16T01:57:31;98541.91;;;-1.40;57.13
75039;BME280;63609;49.992;14.512;2023-03-16T02:00:11;98542.03;;;-1.43;57.35
75039;BME280;63609;49.992;14.512;2023-03-16T02:03:10;98547.69;;;-1.52;57.04
75039;BME280;63609;49.992;14.512;2023-03-16T02:05:51;98544.44;;;-1.59;56.56
75039;BME280;63609;49.992;14.512;2023-03-16T02:08:23;98548.34;;;-1.47;56.14
75039;BME280;63609;49.992;14.512;2023-03-16T02:10:53;98545.59;;;-1.44;54.75
75039;BME280;63609;49.992;14.512;2023-03-16T02:13:30;98548.47;;;-1.50;55.77
75039;BME280;63609;49.992;14.512;2023-03-16T02:16:00;98542.19;;;-1.88;57.54
75039;BME280;63609;49.992;14.512;2023-03-16T02:18:27;98545.94;;;-1.95;57.39
75039;BME280;63609;49.992;14.512;2023-03-16T02:21:16;98547.38;;;-1.87;56.70
75039;BME280;63609;49.992;14.512;2023-03-16T02:23:45;98538.28;;;-1.78;55.22
75039;BME280;63609;49.992;14.512;2023-03-16T02:31:46;98560.63;;;-1.91;54.97
75039;BME280;63609;49.992;14.512;2023-03-16T02:34:15;98561.25;;;-1.85;54.84
75039;BME280;63609;49.992;14.512;2023-03-16T02:36:44;98556.13;;;-1.88;54.99
75039;BME280;63609;49.992;14.512;2023-03-16T02:39:13;98566.81;;;-1.94;54.52
75039;BME280;63609;49.992;14.512;2023-03-16T02:41:45;98566.09;;;-1.97;54.58
75039;BME280;63609;49.992;14.512;2023-03-16T02:44:35;98557.84;;;-1.87;54.43
75039;BME280;63609;49.992;14.512;2023-03-16T02:47:19;98569.44;;;-1.94;54.20
75039;BME280;63609;49.992;14.512;2023-03-16T02:49:50;98562.31;;;-1.90;54.34
75039;BME280;63609;49.992;14.512;2023-03-16T02:52:17;98565.84;;;-1.91;54.84
75039;BME280;63609;49.992;14.512;2023-03-16T02:54:45;98567.19;;;-2.03;55.10
75039;BME280;63609;49.992;14.512;2023-03-16T02:57:13;98570.19;;;-2.12;55.61
75039;BME280;63609;49.992;14.512;2023-03-16T02:59:40;98568.28;;;-2.09;54.37
75039;BME280;63609;49.992;14.512;2023-03-16T03:02:08;98573.78;;;-2.15;54.39
75039;BME280;63609;49.992;14.512;2023-03-16T03:04:38;98582.16;;;-2.07;55.00
75039;BME280;63609;49.992;14.512;2023-03-16T03:07:06;98569.22;;;-2.10;55.53
75039;BME280;63609;49.992;14.512;2023-03-16T03:09:49;98580.59;;;-2.11;55.17
75039;BME280;63609;49.992;14.512;2023-03-16T03:12:19;98576.88;;;-2.05;54.51
75039;BME280;63609;49.992;14.512;2023-03-16T03:14:46;98580.94;;;-1.98;54.11
75039;BME280;63609;49.992;14.512;2023-03-16T03:17:16;98574.97;;;-2.02;54.46
75039;BME280;63609;49.992;14.512;2023-03-16T03:19:44;98584.16;;;-1.91;53.89
75039;BME280;63609;49.992;14.512;2023-03-16T03:22:11;98583.72;;;-1.59;53.85
75039;BME280;63609;49.992;14.512;2023-03-16T03:24:38;98587.38;;;-1.63;54.21
75039;BME280;63609;49.992;14.512;2023-03-16T03:27:05;98584.91;;;-1.88;53.80
75039;BME280;63609;49.992;14.512;2023-03-16T03:29:35;98582.97;;;-2.05;54.00
75039;BME280;63609;49.992;14.512;2023-03-16T03:32:04;98581.13;;;-2.03;53.86
75039;BME280;63609;49.992;14.512;2023-03-16T03:34:31;98585.09;;;-2.14;53.96
75039;BME280;63609;49.992;14.512;2023-03-16T03:36:59;98587.41;;;-2.07;53.37
75039;BME280;63609;49.992;14.512;2023-03-16T03:39:27;98586.34;;;-2.24;54.93
75039;BME280;63609;49.992;14.512;2023-03-16T03:41:54;98592.03;;;-2.37;55.86
75039;BME280;63609;49.992;14.512;2023-03-16T03:44:23;98591.53;;;-2.46;56.64
75039;BME280;63609;49.992;14.512;2023-03-16T03:46:54;98584.66;;;-2.49;57.17
75039;BME280;63609;49.992;14.512;2023-03-16T03:49:26;98596.84;;;-2.26;56.35
75039;BME280;63609;49.992;14.512;2023-03-16T03:51:54;98591.38;;;-2.42;56.46
75039;BME280;63609;49.992;14.512;2023-03-16T03:54:25;98597.88;;;-2.30;55.03
75039;BME280;63609;49.992;14.512;2023-03-16T03:56:56;98590.66;;;-2.23;54.96
75039;BME280;63609;49.992;14.512;2023-03-16T03:59:24;98604.38;;;-2.17;54.50
75039;BME280;63609;49.992;14.512;2023-03-16T04:02:16;98597.56;;;-2.21;54.63
75039;BME280;63609;49.992;14.512;2023-03-16T04:04:52;98599.16;;;-2.40;54.68
75039;BME280;63609;49.992;14.512;2023-03-16T04:07:19;98600.13;;;-2.43;55.32
75039;BME280;63609;49.992;14.512;2023-03-16T04:09:49;98598.47;;;-2.45;55.50
75039;BME280;63609;49.992;14.512;2023-03-16T04:12:31;98604.72;;;-2.49;55.54
75039;BME280;63609;49.992;14.512;2023-03-16T04:14:59;98603.94;;;-2.51;56.92
75039;BME280;63609;49.992;14.512;2023-03-16T04:17:32;98605.84;;;-2.33;55.78
75039;BME280;63609;49.992;14.512;2023-03-16T04:20:03;98609.50;;;-2.37;55.28
75039;BME280;63609;49.992;14.512;2023-03-16T04:22:41;98614.72;;;-2.37;55.47
75039;BME280;63609;49.992;14.512;2023-03-16T04:25:13;98603.41;;;-2.38;54.13
75039;BME280;63609;49.992;14.512;2023-03-16T04:27:42;98614.53;;;-2.56;55.15
75039;BME280;63609;49.992;14.512;2023-03-16T04:30:12;98614.91;;;-2.42;55.31
75039;BME280;63609;49.992;14.512;2023-03-16T04:32:44;98623.88;;;-2.49;55.25
75039;BME280;63609;49.992;14.512;2023-03-16T04:35:24;98623.66;;;-2.43;56.32
75039;BME280;63609;49.992;14.512;2023-03-16T04:37:56;98621.50;;;-2.55;55.73
75039;BME280;63609;49.992;14.512;2023-03-16T04:40:32;98629.00;;;-2.46;55.33
75039;BME280;63609;49.992;14.512;2023-03-16T04:43:07;98623.66;;;-2.43;55.25
75039;BME280;63609;49.992;14.512;2023-03-16T04:45:35;98623.34;;;-2.58;54.70
75039;BME280;63609;49.992;14.512;2023-03-16T04:48:03;98628.75;;;-2.63;53.77
75039;BME280;63609;49.992;14.512;2023-03-16T04:50:30;98630.69;;;-2.68;55.06
75039;BME280;63609;49.992;14.512;2023-03-16T04:52:57;98634.50;;;-2.53;55.11
75039;BME280;63609;49.992;14.512;2023-03-16T04:55:27;98634.66;;;-2.58;54.99
75039;BME280;63609;49.992;14.512;2023-03-16T04:57:57;98630.34;;;-2.59;54.13
75039;BME280;63609;49.992;14.512;2023-03-16T05:00:26;98630.41;;;-2.60;54.52
75039;BME280;63609;49.992;14.512;2023-03-16T05:03:24;98635.38;;;-2.53;54.14
75039;BME280;63609;49.992;14.512;2023-03-16T05:05:54;98631.97;;;-2.55;54.88
75039;BME280;63609;49.992;14.512;2023-03-16T05:08:23;98629.34;;;-2.55;54.77
75039;BME280;63609;49.992;14.512;2023-03-16T05:10:58;98631.97;;;-2.56;54.23
75039;BME280;63609;49.992;14.512;2023-03-16T05:13:31;98627.16;;;-2.67;54.61
75039;BME280;63609;49.992;14.512;2023-03-16T05:16:02;98628.69;;;-2.62;53.95
75039;BME280;63609;49.992;14.512;2023-03-16T05:18:34;98629.03;;;-2.71;54.42
75039;BME280;63609;49.992;14.512;2023-03-16T05:21:03;98631.78;;;-2.50;54.32
75039;BME280;63609;49.992;14.512;2023-03-16T05:23:44;98629.47;;;-2.59;54.56
75039;BME280;63609;49.992;14.512;2023-03-16T05:26:14;98636.34;;;-2.57;54.64
75039;BME280;63609;49.992;14.512;2023-03-16T05:28:43;98628.19;;;-2.71;54.47
75039;BME280;63609;49.992;14.512;2023-03-16T05:31:21;98636.88;;;-2.71;54.14
75039;BME280;63609;49.992;14.512;2023-03-16T05:33:52;98635.28;;;-2.75;54.52
75039;BME280;63609;49.992;14.512;2023-03-16T05:36:23;98638.69;;;-2.73;54.42
75039;BME280;63609;49.992;14.512;2023-03-16T05:38:55;98630.00;;;-2.73;55.00
75039;BME280;63609;49.992;14.512;2023-03-16T05:41:33;98635.91;;;-2.68;54.30
75039;BME280;63609;49.992;14.512;2023-03-16T05:44:23;98630.56;;;-2.65;54.28
75039;BME280;63609;49.992;14.512;2023-03-16T05:47:04;98628.38;;;-2.52;53.97
75039;BME280;63609;49.992;14.512;2023-03-16T05:50:03;98630.41;;;-2.60;54.47
75039;BME280;63609;49.992;14.512;2023-03-16T05:52:38;98631.97;;;-2.55;55.27
75039;BME280;63609;49.992;14.512;2023-03-16T05:55:16;98632.75;;;-2.53;55.08
75039;BME280;63609;49.992;14.512;2023-03-16T05:57:50;98635.59;;;-2.36;55.26
75039;BME280;63609;49.992;14.512;2023-03-16T06:00:19;98638.69;;;-2.26;55.49
75039;BME280;63609;49.992;14.512;2023-03-16T06:02:55;98635.75;;;-2.17;55.38
75039;BME280;63609;49.992;14.512;2023-03-16T06:05:27;98644.94;;;-2.07;54.86
75039;BME280;63609;49.992;14.512;2023-03-16T06:07:55;98646.84;;;-2.10;54.88
75039;BME280;63609;49.992;14.512;2023-03-16T06:10:23;98643.63;;;-1.95;55.17
75039;BME280;63609;49.992;14.512;2023-03-16T06:12:54;98656.47;;;-1.89;55.95
75039;BME280;63609;49.992;14.512;2023-03-16T06:15:21;98649.03;;;-2.00;58.08
75039;BME280;63609;49.992;14.512;2023-03-16T06:17:53;98651.84;;;-1.82;57.09
75039;BME280;63609;49.992;14.512;2023-03-16T06:20:21;98644.44;;;-1.71;57.93
75039;BME280;63609;49.992;14.512;2023-03-16T06:22:48;98658.06;;;-1.63;58.45
75039;BME280;63609;49.992;14.512;2023-03-16T06:25:16;98658.97;;;-1.64;58.67
75039;BME280;63609;49.992;14.512;2023-03-16T06:27:46;98663.28;;;-1.41;58.34
75039;BME280;63609;49.992;14.512;2023-03-16T06:30:18;98652.06;;;-1.23;57.75
75039;BME280;63609;49.992;14.512;2023-03-16T06:32:48;98655.16;;;-0.93;58.27
75039;BME280;63609;49.992;14.512;2023-03-16T06:35:15;98658.16;;;-0.61;56.83
75039;BME280;63609;49.992;14.512;2023-03-16T06:37:54;98664.53;;;-0.28;55.89
75039;BME280;63609;49.992;14.512;2023-03-16T06:40:44;98660.88;;;-0.24;55.25
75039;BME280;63609;49.992;14.512;2023-03-16T06:43:12;98664.78;;;0.05;55.82
75039;BME280;63609;49.992;14.512;2023-03-16T06:45:42;98663.91;;;0.24;55.26
75039;BME280;63609;49.992;14.512;2023-03-16T06:48:10;98667.31;;;0.44;55.19
75039;BME280;63609;49.992;14.512;2023-03-16T06:50:38;98681.00;;;0.51;55.60
75039;BME280;63609;49.992;14.512;2023-03-16T06:53:06;98675.75;;;0.68;54.79
75039;BME280;63609;49.992;14.512;2023-03-16T06:55:35;98682.16;;;0.27;55.13
75039;BME280;63609;49.992;14.512;2023-03-16T06:58:03;98685.16;;;-0.39;57.52
75039;BME280;63609;49.992;14.512;2023-03-16T07:00:30;98697.50;;;-0.82;59.12
75039;BME280;63609;49.992;14.512;2023-03-16T07:03:01;98693.03;;;-0.80;60.11
75039;BME280;63609;49.992;14.512;2023-03-16T07:05:33;98695.63;;;-0.58;59.10
75039;BME280;63609;49.992;14.512;2023-03-16T07:08:03;98688.28;;;-0.90;59.83
75039;BME280;63609;49.992;14.512;2023-03-16T07:10:34;98710.88;;;-0.88;60.70
75039;BME280;63609;49.992;14.512;2023-03-16T07:13:02;98698.34;;;-0.81;61.06
75039;BME280;63609;49.992;14.512;2023-03-16T07:15:30;98705.22;;;-0.99;61.74
75039;BME280;63609;49.992;14.512;2023-03-16T07:17:58;98708.56;;;-0.75;60.99
75039;BME280;63609;49.992;14.512;2023-03-16T07:20:26;98701.59;;;-0.96;60.93
75039;BME280;63609;49.992;14.512;2023-03-16T07:23:00;98714.13;;;-1.03;61.85
75039;BME280;63609;49.992;14.512;2023-03-16T07:25:28;98706.63;;;-0.31;59.87
75039;BME280;63609;49.992;14.512;2023-03-16T07:27:55;98699.59;;;-0.49;59.05
75039;BME280;63609;49.992;14.512;2023-03-16T07:30:28;98703.97;;;-0.70;61.35
75039;BME280;63609;49.992;14.512;2023-03-16T07:32:57;98698.88;;;-0.14;60.52
75039;BME280;63609;49.992;14.512;2023-03-16T07:35:26;98706.97;;;0.01;59.72
75039;BME280;63609;49.992;14.512;2023-03-16T07:37:54;98715.91;;;-0.03;59.25
75039;BME280;63609;49.992;14.512;2023-03-16T07:40:23;98707.03;;;-0.20;60.47
75039;BME280;63609;49.992;14.512;2023-03-16T07:43:02;98709.34;;;0.44;59.86
75039;BME280;63609;49.992;14.512;2023-03-16T07:45:35;98708.66;;;0.94;57.27
75039;BME280;63609;49.992;14.512;2023-03-16T07:48:03;98706.56;;;0.84;58.16
75039;BME280;63609;49.992;14.512;2023-03-16T07:50:42;98704.28;;;1.12;57.01
75039;BME280;63609;49.992;14.512;2023-03-16T07:53:13;98704.66;;;2.07;55.17
75039;BME280;63609;49.992;14.512;2023-03-16T07:55:46;98704.50;;;2.10;54.80
75039;BME280;63609;49.992;14.512;2023-03-16T07:58:19;98721.16;;;2.26;55.27
75039;BME280;63609;49.992;14.512;2023-03-16T08:00:48;98710.38;;;1.97;54.96
75039;BME280;63609;49.992;14.512;2023-03-16T08:03:18;98723.69;;;1.79;56.84
75039;BME280;63609;49.992;14.512;2023-03-16T08:05:46;98728.97;;;2.27;55.56
75039;BME280;63609;49.992;14.512;2023-03-16T08:08:16;98717.91;;;2.21;55.43
75039;BME280;63609;49.992;14.512;2023-03-16T08:10:48;98722.78;;;2.76;54.09
75039;BME280;63609;49.992;14.512;2023-03-16T08:13:19;98720.06;;;2.61;54.28
75039;BME280;63609;49.992;14.512;2023-03-16T08:15:50;98729.25;;;2.39;54.83
75039;BME280;63609;49.992;14.512;2023-03-16T08:18:34;98728.81;;;2.78;54.00
75039;BME280;63609;49.992;14.512;2023-03-16T08:21:03;98726.94;;;2.64;55.07
75039;BME280;63609;49.992;14.512;2023-03-16T08:23:31;98723.31;;;2.35;53.69
75039;BME280;63609;49.992;14.512;2023-03-16T08:25:59;98721.09;;;1.94;54.83
75039;BME280;63609;49.992;14.512;2023-03-16T08:28:27;98725.22;;;2.31;54.77
75039;BME280;63609;49.992;14.512;2023-03-16T08:30:56;98719.34;;;2.11;54.99
75039;BME280;63609;49.992;14.512;2023-03-16T08:33:56;98717.34;;;2.47;54.18
75039;BME280;63609;49.992;14.512;2023-03-16T08:36:26;98722.97;;;2.41;54.84
75039;BME280;63609;49.992;14.512;2023-03-16T08:38:56;98720.81;;;2.32;54.68
75039;BME280;63609;49.992;14.512;2023-03-16T08:41:37;98724.72;;;1.76;56.29
75039;BME280;63609;49.992;14.512;2023-03-16T08:44:13;98727.44;;;1.90;55.04
75039;BME280;63609;49.992;14.512;2023-03-16T08:46:41;98729.34;;;1.36;56.21
75039;BME280;63609;49.992;14.512;2023-03-16T08:49:08;98733.69;;;1.55;58.13
75039;BME280;63609;49.992;14.512;2023-03-16T08:51:36;98738.06;;;1.89;57.87
75039;BME280;63609;49.992;14.512;2023-03-16T08:54:03;98736.94;;;1.60;56.62
75039;BME280;63609;49.992;14.512;2023-03-16T08:56:30;98734.25;;;1.44;55.24
75039;BME280;63609;49.992;14.512;2023-03-16T08:58:58;98733.69;;;1.72;56.18
75039;BME280;63609;49.992;14.512;2023-03-16T09:01:25;98736.63;;;2.32;55.75
75039;BME280;63609;49.992;14.512;2023-03-16T09:03:53;98733.25;;;3.23;54.81
75039;BME280;63609;49.992;14.512;2023-03-16T09:06:20;98727.69;;;2.19;56.85
75039;BME280;63609;49.992;14.512;2023-03-16T09:08:49;98734.22;;;2.27;56.60
75039;BME280;63609;49.992;14.512;2023-03-16T09:11:17;98733.94;;;2.49;56.42
75039;BME280;63609;49.992;14.512;2023-03-16T09:13:45;98732.00;;;2.04;57.26
75039;BME280;63609;49.992;14.512;2023-03-16T09:16:13;98730.75;;;2.27;56.31
75039;BME280;63609;49.992;14.512;2023-03-16T09:18:41;98738.69;;;2.43;57.68
75039;BME280;63609;49.992;14.512;2023-03-16T09:21:10;98727.78;;;2.64;56.35
75039;BME280;63609;49.992;14.512;2023-03-16T09:23:39;98729.28;;;3.16;55.24
75039;BME280;63609;49.992;14.512;2023-03-16T09:26:10;98740.28;;;2.92;56.98
75039;BME280;63609;49.992;14.512;2023-03-16T09:28:39;98731.38;;;2.63;55.82
75039;BME280;63609;49.992;14.512;2023-03-16T09:31:14;98735.78;;;1.98;58.82
75039;BME280;63609;49.992;14.512;2023-03-16T09:33:42;98742.94;;;2.61;58.24
75039;BME280;63609;49.992;14.512;2023-03-16T09:36:09;98742.75;;;2.64;56.40
75039;BME280;63609;49.992;14.512;2023-03-16T09:38:40;98741.88;;;3.11;57.06
75039;BME280;63609;49.992;14.512;2023-03-16T09:41:11;98742.63;;;3.73;55.00
75039;BME280;63609;49.992;14.512;2023-03-16T09:46:48;98745.94;;;3.76;53.24
75039;BME280;63609;49.992;14.512;2023-03-16T09:49:18;98753.75;;;3.64;54.73
75039;BME280;63609;49.992;14.512;2023-03-16T09:55:15;98744.47;;;5.26;48.01
75039;BME280;63609;49.992;14.512;2023-03-16T09:57:48;98746.81;;;5.03;47.69
75039;BME280;63609;49.992;14.512;2023-03-16T10:00:21;98743.94;;;6.11;47.06
75039;BME280;63609;49.992;14.512;2023-03-16T10:03:08;98739.00;;;5.94;46.19
75039;BME280;63609;49.992;14.512;2023-03-16T10:05:37;98744.94;;;5.58;45.15
75039;BME280;63609;49.992;14.512;2023-03-16T10:18:47;98736.31;;;6.32;41.17
75039;BME280;63609;49.992;14.512;2023-03-16T10:21:16;98733.09;;;6.89;42.11
75039;BME280;63609;49.992;14.512;2023-03-16T10:23:46;98729.06;;;6.59;40.65
75039;BME280;63609;49.992;14.512;2023-03-16T10:26:24;98733.78;;;5.79;43.67
75039;BME280;63609;49.992;14.512;2023-03-16T10:28:54;98741.81;;;6.16;41.79
75039;BME280;63609;49.992;14.512;2023-03-16T10:31:22;98747.44;;;5.73;44.21
75039;BME280;63609;49.992;14.512;2023-03-16T10:34:04;98742.69;;;5.39;43.93
75039;BME280;63609;49.992;14.512;2023-03-16T10:36:48;98734.94;;;6.14;42.49
75039;BME280;63609;49.992;14.512;2023-03-16T10:39:17;98734.47;;;6.94;40.96
75039;BME280;63609;49.992;14.512;2023-03-16T10:41:54;98736.50;;;7.74;39.47
75039;BME280;63609;49.992;14.512;2023-03-16T10:44:24;98728.69;;;8.17;40.44
75039;BME280;63609;49.992;14.512;2023-03-16T10:49:28;98724.69;;;7.89;39.38
75039;BME280;63609;49.992;14.512;2023-03-16T10:51:59;98727.94;;;6.13;40.78
75039;BME280;63609;49.992;14.512;2023-03-16T10:54:33;98728.97;;;6.23;39.81
75039;BME280;63609;49.992;14.512;2023-03-16T10:57:12;98722.00;;;7.19;42.19
75039;BME280;63609;49.992;14.512;2023-03-16T10:59:47;98728.94;;;8.03;39.53
75039;BME280;63609;49.992;14.512;2023-03-16T11:02:18;98724.13;;;8.64;38.40
75039;BME280;63609;49.992;14.512;2023-03-16T11:04:46;98723.59;;;7.45;41.17
75039;BME280;63609;49.992;14.512;2023-03-16T11:07:20;98714.56;;;7.48;40.59
75039;BME280;63609;49.992;14.512;2023-03-16T11:09:56;98723.13;;;7.86;41.80
75039;BME280;63609;49.992;14.512;2023-03-16T11:12:29;98708.28;;;8.17;40.10
75039;BME280;63609;49.992;14.512;2023-03-16T11:15:08;98706.25;;;8.21;39.75
75039;BME280;63609;49.992;14.512;2023-03-16T11:17:51;98705.97;;;8.57;38.84
75039;BME280;63609;49.992;14.512;2023-03-16T11:20:24;98700.63;;;7.33;40.34
75039;BME280;63609;49.992;14.512;2023-03-16T11:22:53;98699.47;;;7.48;42.34
75039;BME280;63609;49.992;14.512;2023-03-16T11:30:40;98702.75;;;6.56;42.86
75039;BME280;63609;49.992;14.512;2023-03-16T11:33:13;98685.13;;;7.62;39.87
75039;BME280;63609;49.992;14.512;2023-03-16T11:38:32;98680.69;;;7.03;41.43
75039;BME280;63609;49.992;14.512;2023-03-16T11:41:11;98685.41;;;7.11;41.71
75039;BME280;63609;49.992;14.512;2023-03-16T11:46:30;98672.69;;;7.62;38.10
75039;BME280;63609;49.992;14.512;2023-03-16T11:52:16;98662.88;;;8.86;34.93
75039;BME280;63609;49.992;14.512;2023-03-16T11:54:55;98667.91;;;9.95;34.12
75039;BME280;63609;49.992;14.512;2023-03-16T11:57:59;98671.13;;;10.19;33.37
75039;BME280;63609;49.992;14.512;2023-03-16T12:00:57;98671.97;;;8.50;37.37
75039;BME280;63609;49.992;14.512;2023-03-16T12:06:47;98656.38;;;9.73;32.07
75039;BME280;63609;49.992;14.512;2023-03-16T12:09:33;98663.66;;;9.71;32.99
75039;BME280;63609;49.992;14.512;2023-03-16T12:15:31;98661.53;;;10.47;32.75
75039;BME280;63609;49.992;14.512;2023-03-16T12:18:10;98659.75;;;9.34;33.76
75039;BME280;63609;49.992;14.512;2023-03-16T12:23:23;98651.75;;;9.96;32.68
75039;BME280;63609;49.992;14.512;2023-03-16T12:25:55;98648.00;;;8.72;34.41
75039;BME280;63609;49.992;14.512;2023-03-16T12:28:27;98650.63;;;8.07;36.49
75039;BME280;63609;49.992;14.512;2023-03-16T12:39:46;98638.56;;;10.35;32.73
75039;BME280;63609;49.992;14.512;2023-03-16T12:47:51;98632.91;;;11.55;29.51
75039;BME280;63609;49.992;14.512;2023-03-16T12:50:23;98630.25;;;11.36;31.32
75039;BME280;63609;49.992;14.512;2023-03-16T12:52:53;98628.03;;;11.22;30.59
75039;BME280;63609;49.992;14.512;2023-03-16T12:58:05;98626.59;;;11.47;30.72
75039;BME280;63609;49.992;14.512;2023-03-16T13:00:36;98618.50;;;10.00;31.36
75039;BME280;63609;49.992;14.512;2023-03-16T13:03:05;98629.59;;;10.45;31.82
75039;BME280;63609;49.992;14.512;2023-03-16T13:05:44;98627.47;;;10.30;33.05
75039;BME280;63609;49.992;14.512;2023-03-16T13:08:16;98618.34;;;10.32;31.28
75039;BME280;63609;49.992;14.512;2023-03-16T13:11:06;98614.69;;;11.12;30.23
75039;BME280;63609;49.992;14.512;2023-03-16T13:13:48;98620.63;;;10.06;30.99
75039;BME280;63609;49.992;14.512;2023-03-16T13:16:23;98623.63;;;9.62;32.06
75039;BME280;63609;49.992;14.512;2023-03-16T13:18:52;98631.69;;;10.42;30.15
75039;BME280;63609;49.992;14.512;2023-03-16T13:27:20;98615.53;;;9.94;30.15
75039;BME280;63609;49.992;14.512;2023-03-16T13:29:54;98614.06;;;10.70;30.83
75039;BME280;63609;49.992;14.512;2023-03-16T13:32:21;98605.50;;;10.95;29.24
75039;BME280;63609;49.992;14.512;2023-03-16T13:34:51;98610.25;;;9.52;29.58
75039;BME280;63609;49.992;14.512;2023-03-16T13:37:20;98603.81;;;9.55;30.19
75039;BME280;63609;49.992;14.512;2023-03-16T13:39:57;98613.72;;;10.44;29.61
75039;BME280;63609;49.992;14.512;2023-03-16T13:42:29;98603.97;;;10.83;29.75
75039;BME280;63609;49.992;14.512;2023-03-16T13:45:10;98592.38;;;11.60;28.09
75039;BME280;63609;49.992;14.512;2023-03-16T13:47:42;98596.22;;;10.99;28.92
75039;BME280;63609;49.992;14.512;2023-03-16T13:50:19;98594.78;;;10.57;28.08
75039;BME280;63609;49.992;14.512;2023-03-16T13:52:55;98593.84;;;9.57;31.63
75039;BME280;63609;49.992;14.512;2023-03-16T13:55:30;98594.88;;;10.26;29.54
75039;BME280;63609;49.992;14.512;2023-03-16T13:57:58;98586.94;;;10.84;27.94
75039;BME280;63609;49.992;14.512;2023-03-16T14:00:31;98578.09;;;10.84;27.23
75039;BME280;63609;49.992;14.512;2023-03-16T14:03:21;98574.19;;;11.63;26.28
75039;BME280;63609;49.992;14.512;2023-03-16T14:05:50;98578.50;;;11.27;28.82
75039;BME280;63609;49.992;14.512;2023-03-16T14:08:23;98576.25;;;11.32;28.48
75039;BME280;63609;49.992;14.512;2023-03-16T14:10:53;98564.28;;;11.07;27.17
75039;BME280;63609;49.992;14.512;2023-03-16T14:15:56;98565.44;;;10.95;29.68
75039;BME280;63609;49.992;14.512;2023-03-16T14:18:31;98557.97;;;11.09;28.48
75039;BME280;63609;49.992;14.512;2023-03-16T14:21:07;98563.69;;;9.87;30.56
75039;BME280;63609;49.992;14.512;2023-03-16T14:23:39;98566.72;;;10.12;31.39
75039;BME280;63609;49.992;14.512;2023-03-16T14:26:13;98559.34;;;10.35;29.82
75039;BME280;63609;49.992;14.512;2023-03-16T14:28:54;98558.56;;;10.83;29.82
75039;BME280;63609;49.992;14.512;2023-03-16T14:31:31;98548.44;;;10.87;29.33
75039;BME280;63609;49.992;14.512;2023-03-16T14:34:02;98542.88;;;11.46;29.65